sensor_id;sensor_type;location;lat;lon;timestamp;pressure;altitude;pressure_sealevel;temperature;humidity
71805;BME280;59654;52.216;5.616;2022-12-24T00:00:15;100266.75;;;8.19;96.78
71805;BME280;59654;52.216;5.616;2022-12-24T00:00:46;100269.47;;;8.17;97.83
71805;BME280;59654;52.216;5.616;2022-12-24T00:01:16;100264.97;;;8.19;96.91
71805;BME280;59654;52.216;5.616;2022-12-24T00:01:47;100276.50;;;8.18;97.01
71805;BME280;59654;52.216;5.616;2022-12-24T00:02:19;100275.59;;;8.19;97.58
71805;BME280;59654;52.216;5.616;2022-12-24T00:02:50;100277.25;;;8.22;96.60
71805;BME280;59654;52.216;5.616;2022-12-24T00:03:21;100277.19;;;8.23;96.89
71805;BME280;59654;52.216;5.616;2022-12-24T00:03:51;100283.47;;;8.21;96.40
71805;BME280;59654;52.216;5.616;2022-12-24T00:04:22;100278.97;;;8.23;97.85
71805;BME280;59654;52.216;5.616;2022-12-24T00:04:53;100271.00;;;8.23;96.78
71805;BME280;59654;52.216;5.616;2022-12-24T00:05:23;100282.50;;;8.23;96.34
71805;BME280;59654;52.216;5.616;2022-12-24T00:05:54;100275.44;;;8.22;96.70
71805;BME280;59654;52.216;5.616;2022-12-24T00:06:25;100270.03;;;8.26;96.74
71805;BME280;59654;52.216;5.616;2022-12-24T00:06:56;100284.13;;;8.28;97.07
71805;BME280;59654;52.216;5.616;2022-12-24T00:07:27;100285.00;;;8.28;97.73
71805;BME280;59654;52.216;5.616;2022-12-24T00:07:58;100287.75;;;8.25;96.22
71805;BME280;59654;52.216;5.616;2022-12-24T00:08:29;100283.25;;;8.27;96.55
71805;BME280;59654;52.216;5.616;2022-12-24T00:09:00;100282.50;;;8.23;96.49
71805;BME280;59654;52.216;5.616;2022-12-24T00:09:30;100280.75;;;8.22;97.34
71805;BME280;59654;52.216;5.616;2022-12-24T00:10:03;100291.28;;;8.26;96.14
71805;BME280;59654;52.216;5.616;2022-12-24T00:10:34;100286.03;;;8.24;96.96
71805;BME280;59654;52.216;5.616;2022-12-24T00:11:05;100292.13;;;8.26;97.18
71805;BME280;59654;52.216;5.616;2022-12-24T00:11:35;100283.31;;;8.26;96.72
71805;BME280;59654;52.216;5.616;2022-12-24T00:12:06;100283.19;;;8.29;96.08
71805;BME280;59654;52.216;5.616;2022-12-24T00:12:38;100296.41;;;8.30;96.23
71805;BME280;59654;52.216;5.616;2022-12-24T00:13:08;100292.91;;;8.30;95.71
71805;BME280;59654;52.216;5.616;2022-12-24T00:13:39;100299.19;;;8.27;95.54
71805;BME280;59654;52.216;5.616;2022-12-24T00:14:10;100292.03;;;8.29;96.53
71805;BME280;59654;52.216;5.616;2022-12-24T00:14:41;100291.28;;;8.26;95.47
71805;BME280;59654;52.216;5.616;2022-12-24T00:15:11;100295.72;;;8.25;96.14
71805;BME280;59654;52.216;5.616;2022-12-24T00:15:42;100296.47;;;8.29;96.62
71805;BME280;59654;52.216;5.616;2022-12-24T00:16:13;100292.91;;;8.30;95.81
71805;BME280;59654;52.216;5.616;2022-12-24T00:16:44;100291.97;;;8.31;96.13
71805;BME280;59654;52.216;5.616;2022-12-24T00:17:15;100289.31;;;8.31;96.63
71805;BME280;59654;52.216;5.616;2022-12-24T00:17:45;100294.63;;;8.31;96.30
71805;BME280;59654;52.216;5.616;2022-12-24T00:18:16;100290.19;;;8.31;96.63
71805;BME280;59654;52.216;5.616;2022-12-24T00:18:47;100296.25;;;8.35;96.66
71805;BME280;59654;52.216;5.616;2022-12-24T00:19:18;100292.72;;;8.34;96.15
71805;BME280;59654;52.216;5.616;2022-12-24T00:19:49;100302.34;;;8.37;96.42
71805;BME280;59654;52.216;5.616;2022-12-24T00:20:19;100305.81;;;8.39;96.64
71805;BME280;59654;52.216;5.616;2022-12-24T00:20:50;100299.69;;;8.37;95.39
71805;BME280;59654;52.216;5.616;2022-12-24T00:21:21;100294.31;;;8.38;96.00
71805;BME280;59654;52.216;5.616;2022-12-24T00:21:52;100306.75;;;8.38;95.17
71805;BME280;59654;52.216;5.616;2022-12-24T00:22:23;100298.91;;;8.35;95.20
71805;BME280;59654;52.216;5.616;2022-12-24T00:22:54;100300.81;;;8.31;95.98
71805;BME280;59654;52.216;5.616;2022-12-24T00:23:25;100305.19;;;8.32;95.61
71805;BME280;59654;52.216;5.616;2022-12-24T00:23:56;100293.81;;;8.29;96.04
71805;BME280;59654;52.216;5.616;2022-12-24T00:24:26;100301.75;;;8.30;95.62
71805;BME280;59654;52.216;5.616;2022-12-24T00:24:57;100299.03;;;8.32;95.93
71805;BME280;59654;52.216;5.616;2022-12-24T00:25:28;100304.94;;;8.38;96.63
71805;BME280;59654;52.216;5.616;2022-12-24T00:25:59;100306.75;;;8.38;96.58
71805;BME280;59654;52.216;5.616;2022-12-24T00:26:30;100309.41;;;8.38;95.51
71805;BME280;59654;52.216;5.616;2022-12-24T00:27:02;100301.56;;;8.35;96.64
71805;BME280;59654;52.216;5.616;2022-12-24T00:27:35;100294.38;;;8.37;96.54
71805;BME280;59654;52.216;5.616;2022-12-24T00:28:05;100304.94;;;8.38;96.19
71805;BME280;59654;52.216;5.616;2022-12-24T00:28:36;100308.53;;;8.37;96.79
71805;BME280;59654;52.216;5.616;2022-12-24T00:29:07;100302.44;;;8.35;95.51
71805;BME280;59654;52.216;5.616;2022-12-24T00:29:38;100307.59;;;8.38;96.04
71805;BME280;59654;52.216;5.616;2022-12-24T00:30:09;100307.66;;;8.37;96.05
71805;BME280;59654;52.216;5.616;2022-12-24T00:30:41;100303.47;;;8.31;94.72
71805;BME280;59654;52.216;5.616;2022-12-24T00:31:17;100304.22;;;8.35;95.59
71805;BME280;59654;52.216;5.616;2022-12-24T00:31:48;100305.16;;;8.34;95.85
71805;BME280;59654;52.216;5.616;2022-12-24T00:32:19;100311.44;;;8.31;95.41
71805;BME280;59654;52.216;5.616;2022-12-24T00:32:49;100309.75;;;8.29;95.97
71805;BME280;59654;52.216;5.616;2022-12-24T00:33:20;100306.19;;;8.30;95.76
71805;BME280;59654;52.216;5.616;2022-12-24T00:33:52;100317.84;;;8.26;95.27
71805;BME280;59654;52.216;5.616;2022-12-24T00:34:24;100306.34;;;8.25;96.16
71805;BME280;59654;52.216;5.616;2022-12-24T00:34:55;100315.28;;;8.22;95.59
71805;BME280;59654;52.216;5.616;2022-12-24T00:35:25;100309.06;;;8.23;96.48
71805;BME280;59654;52.216;5.616;2022-12-24T00:35:56;100310.72;;;8.26;97.08
71805;BME280;59654;52.216;5.616;2022-12-24T00:36:27;100316.00;;;8.28;96.05
71805;BME280;59654;52.216;5.616;2022-12-24T00:36:58;100313.19;;;8.32;96.87
71805;BME280;59654;52.216;5.616;2022-12-24T00:37:29;100316.81;;;8.30;96.76
71805;BME280;59654;52.216;5.616;2022-12-24T00:38:00;100315.78;;;8.34;96.74
71805;BME280;59654;52.216;5.616;2022-12-24T00:38:30;100315.56;;;8.38;95.33
71805;BME280;59654;52.216;5.616;2022-12-24T00:39:02;100327.13;;;8.37;95.81
71805;BME280;59654;52.216;5.616;2022-12-24T00:39:32;100317.25;;;8.41;95.58
71805;BME280;59654;52.216;5.616;2022-12-24T00:40:04;100334.88;;;8.43;95.64
71805;BME280;59654;52.216;5.616;2022-12-24T00:40:35;100331.47;;;8.40;94.86
71805;BME280;59654;52.216;5.616;2022-12-24T00:41:07;100327.00;;;8.40;94.79
71805;BME280;59654;52.216;5.616;2022-12-24T00:41:54;100327.78;;;8.44;95.70
71805;BME280;59654;52.216;5.616;2022-12-24T00:42:25;100326.03;;;8.43;95.88
71805;BME280;59654;52.216;5.616;2022-12-24T00:42:56;100315.41;;;8.43;94.73
71805;BME280;59654;52.216;5.616;2022-12-24T00:43:28;100321.66;;;8.42;95.50
71805;BME280;59654;52.216;5.616;2022-12-24T00:44:03;100326.25;;;8.37;95.76
71805;BME280;59654;52.216;5.616;2022-12-24T00:44:36;100328.19;;;8.33;95.46
71805;BME280;59654;52.216;5.616;2022-12-24T00:45:07;100322.75;;;8.36;95.56
71805;BME280;59654;52.216;5.616;2022-12-24T00:45:39;100326.25;;;8.37;96.10
71805;BME280;59654;52.216;5.616;2022-12-24T00:46:09;100326.16;;;8.40;96.37
71805;BME280;59654;52.216;5.616;2022-12-24T00:46:41;100330.44;;;8.44;95.85
71805;BME280;59654;52.216;5.616;2022-12-24T00:47:11;100326.97;;;8.42;96.26
71805;BME280;59654;52.216;5.616;2022-12-24T00:47:43;100333.09;;;8.44;95.23
71805;BME280;59654;52.216;5.616;2022-12-24T00:48:14;100326.03;;;8.43;94.94
71805;BME280;59654;52.216;5.616;2022-12-24T00:48:44;100330.59;;;8.39;95.24
71805;BME280;59654;52.216;5.616;2022-12-24T00:49:16;100329.72;;;8.39;95.96
71805;BME280;59654;52.216;5.616;2022-12-24T00:49:47;100335.03;;;8.39;94.93
71805;BME280;59654;52.216;5.616;2022-12-24T00:50:17;100333.13;;;8.42;94.98
71805;BME280;59654;52.216;5.616;2022-12-24T00:50:49;100333.13;;;8.42;94.73
71805;BME280;59654;52.216;5.616;2022-12-24T00:51:21;100335.69;;;8.45;94.91
71805;BME280;59654;52.216;5.616;2022-12-24T00:51:52;100331.19;;;8.47;94.87
71805;BME280;59654;52.216;5.616;2022-12-24T00:52:23;100328.75;;;8.41;95.71
71805;BME280;59654;52.216;5.616;2022-12-24T00:52:54;100333.19;;;8.41;94.93
71805;BME280;59654;52.216;5.616;2022-12-24T00:53:24;100341.13;;;8.42;95.42
71805;BME280;59654;52.216;5.616;2022-12-24T00:53:55;100331.34;;;8.43;95.63
71805;BME280;59654;52.216;5.616;2022-12-24T00:54:26;100333.09;;;8.44;95.14
71805;BME280;59654;52.216;5.616;2022-12-24T00:54:57;100333.03;;;8.45;95.51
71805;BME280;59654;52.216;5.616;2022-12-24T00:55:28;100336.66;;;8.43;95.06
71805;BME280;59654;52.216;5.616;2022-12-24T00:56:00;100334.06;;;8.41;95.10
71805;BME280;59654;52.216;5.616;2022-12-24T00:56:31;100337.75;;;8.37;94.48
71805;BME280;59654;52.216;5.616;2022-12-24T00:57:02;100337.03;;;8.34;95.59
71805;BME280;59654;52.216;5.616;2022-12-24T00:57:33;100339.63;;;8.35;94.90
71805;BME280;59654;52.216;5.616;2022-12-24T00:58:05;100356.34;;;8.37;95.29
71805;BME280;59654;52.216;5.616;2022-12-24T00:58:37;100343.94;;;8.38;94.45
71805;BME280;59654;52.216;5.616;2022-12-24T00:59:07;100344.78;;;8.38;94.63
71805;BME280;59654;52.216;5.616;2022-12-24T00:59:38;100350.88;;;8.42;94.20
71805;BME280;59654;52.216;5.616;2022-12-24T01:00:09;100343.72;;;8.44;95.46
71805;BME280;59654;52.216;5.616;2022-12-24T01:00:40;100350.72;;;8.46;95.20
71805;BME280;59654;52.216;5.616;2022-12-24T01:01:11;100348.91;;;8.47;95.45
71805;BME280;59654;52.216;5.616;2022-12-24T01:01:42;100354.22;;;8.47;95.17
71805;BME280;59654;52.216;5.616;2022-12-24T01:02:13;100368.31;;;8.49;94.46
71805;BME280;59654;52.216;5.616;2022-12-24T01:02:44;100356.03;;;8.46;93.55
71805;BME280;59654;52.216;5.616;2022-12-24T01:03:15;100357.81;;;8.46;94.34
71805;BME280;59654;52.216;5.616;2022-12-24T01:03:46;100360.34;;;8.49;94.50
71805;BME280;59654;52.216;5.616;2022-12-24T01:04:18;100356.72;;;8.51;93.86
71805;BME280;59654;52.216;5.616;2022-12-24T01:05:09;100366.50;;;8.51;94.10
71805;BME280;59654;52.216;5.616;2022-12-24T01:05:41;100362.97;;;8.50;94.16
71805;BME280;59654;52.216;5.616;2022-12-24T01:06:16;100375.31;;;8.51;93.31
71805;BME280;59654;52.216;5.616;2022-12-24T01:06:48;100358.50;;;8.51;94.42
71805;BME280;59654;52.216;5.616;2022-12-24T01:07:19;100365.66;;;8.49;93.16
71805;BME280;59654;52.216;5.616;2022-12-24T01:07:50;100370.94;;;8.50;93.79
71805;BME280;59654;52.216;5.616;2022-12-24T01:08:21;100367.34;;;8.51;94.03
71805;BME280;59654;52.216;5.616;2022-12-24T01:08:52;100370.94;;;8.50;94.25
71805;BME280;59654;52.216;5.616;2022-12-24T01:09:23;100379.94;;;8.46;93.93
71805;BME280;59654;52.216;5.616;2022-12-24T01:09:53;100373.75;;;8.46;94.05
71805;BME280;59654;52.216;5.616;2022-12-24T01:10:24;100375.47;;;8.47;94.31
71805;BME280;59654;52.216;5.616;2022-12-24T01:10:57;100371.91;;;8.48;94.64
71805;BME280;59654;52.216;5.616;2022-12-24T01:11:28;100373.53;;;8.52;94.25
71805;BME280;59654;52.216;5.616;2022-12-24T01:11:58;100370.78;;;8.53;94.09
71805;BME280;59654;52.216;5.616;2022-12-24T01:12:29;100376.88;;;8.57;94.33
71805;BME280;59654;52.216;5.616;2022-12-24T01:13:01;100377.72;;;8.57;93.98
71805;BME280;59654;52.216;5.616;2022-12-24T01:13:33;100380.44;;;8.56;93.78
71805;BME280;59654;52.216;5.616;2022-12-24T01:14:04;100381.38;;;8.55;93.16
71805;BME280;59654;52.216;5.616;2022-12-24T01:14:36;100383.16;;;8.54;92.88
71805;BME280;59654;52.216;5.616;2022-12-24T01:15:08;100386.69;;;8.55;93.11
71805;BME280;59654;52.216;5.616;2022-12-24T01:15:39;100386.69;;;8.55;93.94
71805;BME280;59654;52.216;5.616;2022-12-24T01:16:17;100382.44;;;8.51;94.33
71805;BME280;59654;52.216;5.616;2022-12-24T01:16:49;100387.09;;;8.44;94.22
71805;BME280;59654;52.216;5.616;2022-12-24T01:17:19;100382.63;;;8.45;93.40
71805;BME280;59654;52.216;5.616;2022-12-24T01:17:50;100375.53;;;8.45;93.65
71805;BME280;59654;52.216;5.616;2022-12-24T01:18:22;100393.28;;;8.45;93.21
71805;BME280;59654;52.216;5.616;2022-12-24T01:18:53;100382.63;;;8.45;93.66
71805;BME280;59654;52.216;5.616;2022-12-24T01:19:24;100388.97;;;8.41;93.48
71805;BME280;59654;52.216;5.616;2022-12-24T01:19:55;100397.88;;;8.40;93.56
71805;BME280;59654;52.216;5.616;2022-12-24T01:20:26;100395.22;;;8.40;94.22
71805;BME280;59654;52.216;5.616;2022-12-24T01:21:02;100390.78;;;8.40;94.84
71805;BME280;59654;52.216;5.616;2022-12-24T01:21:33;100398.63;;;8.43;95.06
71805;BME280;59654;52.216;5.616;2022-12-24T01:22:04;100404.81;;;8.44;95.24
71805;BME280;59654;52.216;5.616;2022-12-24T01:22:35;100401.44;;;8.39;93.78
71805;BME280;59654;52.216;5.616;2022-12-24T01:23:05;100397.88;;;8.40;95.26
71805;BME280;59654;52.216;5.616;2022-12-24T01:23:36;100404.91;;;8.41;95.17
71805;BME280;59654;52.216;5.616;2022-12-24T01:24:13;100400.44;;;8.43;94.16
71805;BME280;59654;52.216;5.616;2022-12-24T01:24:44;100399.56;;;8.42;94.74
71805;BME280;59654;52.216;5.616;2022-12-24T01:25:15;100408.44;;;8.41;94.00
71805;BME280;59654;52.216;5.616;2022-12-24T01:25:46;100406.66;;;8.42;94.93
71805;BME280;59654;52.216;5.616;2022-12-24T01:26:17;100412.03;;;8.40;94.65
71805;BME280;59654;52.216;5.616;2022-12-24T01:26:48;100409.31;;;8.42;93.56
71805;BME280;59654;52.216;5.616;2022-12-24T01:27:19;100408.28;;;8.46;94.10
71805;BME280;59654;52.216;5.616;2022-12-24T01:27:50;100399.41;;;8.47;93.99
71805;BME280;59654;52.216;5.616;2022-12-24T01:28:20;100409.09;;;8.48;93.94
71805;BME280;59654;52.216;5.616;2022-12-24T01:28:52;100402.91;;;8.47;93.24
71805;BME280;59654;52.216;5.616;2022-12-24T01:29:23;100404.72;;;8.47;93.87
71805;BME280;59654;52.216;5.616;2022-12-24T01:29:53;100415.34;;;8.47;93.56
71805;BME280;59654;52.216;5.616;2022-12-24T01:30:24;100414.53;;;8.45;93.11
71805;BME280;59654;52.216;5.616;2022-12-24T01:30:55;100412.78;;;8.44;93.43
71805;BME280;59654;52.216;5.616;2022-12-24T01:31:26;100415.28;;;8.48;93.31
71805;BME280;59654;52.216;5.616;2022-12-24T01:31:58;100418.97;;;8.44;94.04
71805;BME280;59654;52.216;5.616;2022-12-24T01:32:28;100417.06;;;8.48;93.51
71805;BME280;59654;52.216;5.616;2022-12-24T01:32:59;100419.72;;;8.48;93.95
71805;BME280;59654;52.216;5.616;2022-12-24T01:33:30;100422.34;;;8.49;93.08
71805;BME280;59654;52.216;5.616;2022-12-24T01:34:01;100425.81;;;8.51;94.08
71805;BME280;59654;52.216;5.616;2022-12-24T01:34:31;100422.44;;;8.46;93.62
71805;BME280;59654;52.216;5.616;2022-12-24T01:35:02;100427.91;;;8.42;93.85
71805;BME280;59654;52.216;5.616;2022-12-24T01:35:34;100429.69;;;8.41;93.85
71805;BME280;59654;52.216;5.616;2022-12-24T01:36:04;100426.28;;;8.38;93.85
71805;BME280;59654;52.216;5.616;2022-12-24T01:36:36;100435.16;;;8.37;94.11
71805;BME280;59654;52.216;5.616;2022-12-24T01:37:07;100426.41;;;8.35;93.66
71805;BME280;59654;52.216;5.616;2022-12-24T01:37:38;100426.22;;;8.39;93.60
71805;BME280;59654;52.216;5.616;2022-12-24T01:38:10;100429.22;;;8.30;94.31
71805;BME280;59654;52.216;5.616;2022-12-24T01:38:41;100427.44;;;8.31;94.33
71805;BME280;59654;52.216;5.616;2022-12-24T01:39:12;100433.66;;;8.30;93.83
71805;BME280;59654;52.216;5.616;2022-12-24T01:39:43;100432.69;;;8.32;93.51
71805;BME280;59654;52.216;5.616;2022-12-24T01:40:16;100425.53;;;8.34;93.85
71805;BME280;59654;52.216;5.616;2022-12-24T01:41:06;100423.81;;;8.33;93.89
71805;BME280;59654;52.216;5.616;2022-12-24T01:41:55;100423.75;;;8.35;94.05
71805;BME280;59654;52.216;5.616;2022-12-24T01:42:47;100425.66;;;8.31;93.55
71805;BME280;59654;52.216;5.616;2022-12-24T01:43:37;100423.75;;;8.35;93.38
71805;BME280;59654;52.216;5.616;2022-12-24T01:44:50;100433.72;;;8.28;92.59
71805;BME280;59654;52.216;5.616;2022-12-24T01:45:44;100436.63;;;8.20;93.66
71805;BME280;59654;52.216;5.616;2022-12-24T01:46:22;100438.31;;;8.23;93.81
71805;BME280;59654;52.216;5.616;2022-12-24T01:47:10;100435.66;;;8.23;94.03
71805;BME280;59654;52.216;5.616;2022-12-24T01:47:43;100432.97;;;8.25;93.67
71805;BME280;59654;52.216;5.616;2022-12-24T01:48:55;100439.94;;;8.27;93.72
71805;BME280;59654;52.216;5.616;2022-12-24T01:49:29;100437.34;;;8.26;92.62
71805;BME280;59654;52.216;5.616;2022-12-24T01:50:10;100438.16;;;8.28;93.86
71805;BME280;59654;52.216;5.616;2022-12-24T01:50:45;100431.13;;;8.27;93.21
71805;BME280;59654;52.216;5.616;2022-12-24T01:51:37;100437.34;;;8.26;93.08
71805;BME280;59654;52.216;5.616;2022-12-24T01:52:18;100442.66;;;8.26;93.53
71805;BME280;59654;52.216;5.616;2022-12-24T01:53:03;100439.91;;;8.29;93.90
71805;BME280;59654;52.216;5.616;2022-12-24T01:53:37;100446.09;;;8.29;93.95
71805;BME280;59654;52.216;5.616;2022-12-24T01:54:17;100444.25;;;8.31;94.20
71805;BME280;59654;52.216;5.616;2022-12-24T01:55:15;100446.03;;;8.31;93.00
71805;BME280;59654;52.216;5.616;2022-12-24T01:55:48;100442.56;;;8.29;93.47
71805;BME280;59654;52.216;5.616;2022-12-24T01:56:20;100442.59;;;8.27;93.24
71805;BME280;59654;52.216;5.616;2022-12-24T01:57:01;100447.06;;;8.27;92.98
71805;BME280;59654;52.216;5.616;2022-12-24T01:57:45;100442.66;;;8.26;93.05
71805;BME280;59654;52.216;5.616;2022-12-24T01:58:23;100447.88;;;8.29;93.78
71805;BME280;59654;52.216;5.616;2022-12-24T01:59:02;100447.81;;;8.30;93.44
71805;BME280;59654;52.216;5.616;2022-12-24T01:59:37;100438.97;;;8.30;93.64
71805;BME280;59654;52.216;5.616;2022-12-24T02:00:11;100454.88;;;8.31;92.37
71805;BME280;59654;52.216;5.616;2022-12-24T02:00:43;100452.25;;;8.30;93.12
71805;BME280;59654;52.216;5.616;2022-12-24T02:01:14;100450.53;;;8.29;93.10
71805;BME280;59654;52.216;5.616;2022-12-24T02:01:49;100448.69;;;8.31;92.61
71805;BME280;59654;52.216;5.616;2022-12-24T02:02:21;100449.56;;;8.31;93.97
71805;BME280;59654;52.216;5.616;2022-12-24T02:02:53;100454.81;;;8.33;93.17
71805;BME280;59654;52.216;5.616;2022-12-24T02:03:25;100452.16;;;8.33;93.72
71805;BME280;59654;52.216;5.616;2022-12-24T02:03:56;100461.88;;;8.34;93.30
71805;BME280;59654;52.216;5.616;2022-12-24T02:05:09;100455.78;;;8.30;92.78
71805;BME280;59654;52.216;5.616;2022-12-24T02:06:14;100459.75;;;8.18;93.19
71805;BME280;59654;52.216;5.616;2022-12-24T02:06:46;100455.31;;;8.19;94.06
71805;BME280;59654;52.216;5.616;2022-12-24T02:07:18;100465.06;;;8.18;93.67
71805;BME280;59654;52.216;5.616;2022-12-24T02:07:50;100458.69;;;8.22;94.21
71805;BME280;59654;52.216;5.616;2022-12-24T02:08:21;100463.97;;;8.24;94.03
71805;BME280;59654;52.216;5.616;2022-12-24T02:08:53;100462.97;;;8.27;94.01
71805;BME280;59654;52.216;5.616;2022-12-24T02:09:26;100470.13;;;8.25;94.06
71805;BME280;59654;52.216;5.616;2022-12-24T02:09:58;100466.56;;;8.26;93.05
71805;BME280;59654;52.216;5.616;2022-12-24T02:10:30;100466.56;;;8.26;93.99
71805;BME280;59654;52.216;5.616;2022-12-24T02:11:01;100471.94;;;8.24;93.19
71805;BME280;59654;52.216;5.616;2022-12-24T02:11:36;100472.84;;;8.23;93.87
71805;BME280;59654;52.216;5.616;2022-12-24T02:12:09;100473.72;;;8.23;93.62
71805;BME280;59654;52.216;5.616;2022-12-24T02:12:41;100477.22;;;8.24;93.06
71805;BME280;59654;52.216;5.616;2022-12-24T02:13:16;100479.06;;;8.22;93.30
71805;BME280;59654;52.216;5.616;2022-12-24T02:13:53;100477.28;;;8.22;93.83
71805;BME280;59654;52.216;5.616;2022-12-24T02:14:28;100474.75;;;8.19;93.82
71805;BME280;59654;52.216;5.616;2022-12-24T02:15:03;100471.97;;;8.22;93.84
71805;BME280;59654;52.216;5.616;2022-12-24T02:16:07;100484.28;;;8.25;94.23
71805;BME280;59654;52.216;5.616;2022-12-24T02:17:17;100474.63;;;8.22;93.89
71805;BME280;59654;52.216;5.616;2022-12-24T02:18:52;100480.38;;;8.10;93.42
71805;BME280;59654;52.216;5.616;2022-12-24T02:21:33;100482.09;;;8.11;92.49
71805;BME280;59654;52.216;5.616;2022-12-24T02:24:59;100492.28;;;7.99;93.33
71805;BME280;59654;52.216;5.616;2022-12-24T02:28:54;100489.81;;;7.93;93.65
71805;BME280;59654;52.216;5.616;2022-12-24T02:30:37;100496.97;;;7.91;94.54
71805;BME280;59654;52.216;5.616;2022-12-24T02:31:03;100493.28;;;7.95;93.84
71805;BME280;59654;52.216;5.616;2022-12-24T02:32:02;100493.25;;;7.96;93.16
71805;BME280;59654;52.216;5.616;2022-12-24T02:32:45;100497.81;;;7.91;94.16
71805;BME280;59654;52.216;5.616;2022-12-24T02:34:37;100501.31;;;7.93;94.15
71805;BME280;59654;52.216;5.616;2022-12-24T02:35:24;100495.06;;;7.94;93.87
71805;BME280;59654;52.216;5.616;2022-12-24T02:37:05;100498.69;;;7.92;93.41
71805;BME280;59654;52.216;5.616;2022-12-24T02:37:51;100501.34;;;7.92;93.89
71805;BME280;59654;52.216;5.616;2022-12-24T02:38:47;100505.84;;;7.90;93.10
71805;BME280;59654;52.216;5.616;2022-12-24T02:40:30;100507.75;;;7.86;93.88
71805;BME280;59654;52.216;5.616;2022-12-24T02:41:51;100513.84;;;7.88;93.20
71805;BME280;59654;52.216;5.616;2022-12-24T02:42:40;100508.63;;;7.86;93.24
71805;BME280;59654;52.216;5.616;2022-12-24T02:43:21;100512.06;;;7.88;93.94
71805;BME280;59654;52.216;5.616;2022-12-24T02:43:56;100523.53;;;7.89;94.09
71805;BME280;59654;52.216;5.616;2022-12-24T02:44:34;100518.31;;;7.88;93.13
71805;BME280;59654;52.216;5.616;2022-12-24T02:45:30;100516.63;;;7.85;92.98
71805;BME280;59654;52.216;5.616;2022-12-24T02:46:08;100530.00;;;7.82;93.98
71805;BME280;59654;52.216;5.616;2022-12-24T02:46:42;100526.41;;;7.83;93.98
71805;BME280;59654;52.216;5.616;2022-12-24T02:47:15;100522.91;;;7.82;93.94
71805;BME280;59654;52.216;5.616;2022-12-24T02:47:49;100524.78;;;7.79;93.08
71805;BME280;59654;52.216;5.616;2022-12-24T02:48:22;100522.13;;;7.79;93.02
71805;BME280;59654;52.216;5.616;2022-12-24T02:48:55;100521.25;;;7.78;93.56
71805;BME280;59654;52.216;5.616;2022-12-24T02:49:28;100524.88;;;7.76;93.52
71805;BME280;59654;52.216;5.616;2022-12-24T02:50:00;100522.31;;;7.73;93.33
71805;BME280;59654;52.216;5.616;2022-12-24T02:50:31;100525.88;;;7.72;94.13
71805;BME280;59654;52.216;5.616;2022-12-24T02:51:06;100525.06;;;7.70;93.68
71805;BME280;59654;52.216;5.616;2022-12-24T02:51:39;100518.03;;;7.69;93.90
71805;BME280;59654;52.216;5.616;2022-12-24T02:52:29;100523.34;;;7.69;94.25
71805;BME280;59654;52.216;5.616;2022-12-24T02:53:00;100521.56;;;7.69;93.96
71805;BME280;59654;52.216;5.616;2022-12-24T02:53:33;100523.56;;;7.61;94.35
71805;BME280;59654;52.216;5.616;2022-12-24T02:54:05;100518.25;;;7.61;94.46
71805;BME280;59654;52.216;5.616;2022-12-24T02:54:36;100515.56;;;7.63;94.88
71805;BME280;59654;52.216;5.616;2022-12-24T02:55:18;100523.56;;;7.61;94.56
71805;BME280;59654;52.216;5.616;2022-12-24T03:00:19;100533.78;;;7.45;95.00
71805;BME280;59654;52.216;5.616;2022-12-24T03:06:13;100544.63;;;7.38;94.93
71805;BME280;59654;52.216;5.616;2022-12-24T03:07:04;100536.69;;;7.38;94.83
71805;BME280;59654;52.216;5.616;2022-12-24T03:09:07;100541.16;;;7.36;95.15
71805;BME280;59654;52.216;5.616;2022-12-24T03:11:02;100538.41;;;7.39;94.87
71805;BME280;59654;52.216;5.616;2022-12-24T03:11:47;100541.06;;;7.39;94.40
71805;BME280;59654;52.216;5.616;2022-12-24T03:12:42;100536.59;;;7.39;94.71
71805;BME280;59654;52.216;5.616;2022-12-24T03:13:17;100543.78;;;7.37;95.63
71805;BME280;59654;52.216;5.616;2022-12-24T03:13:51;100540.19;;;7.38;95.21
71805;BME280;59654;52.216;5.616;2022-12-24T03:14:25;100538.41;;;7.39;95.53
71805;BME280;59654;52.216;5.616;2022-12-24T03:14:58;100544.63;;;7.38;95.35
71805;BME280;59654;52.216;5.616;2022-12-24T03:15:32;100537.56;;;7.38;94.67
71805;BME280;59654;52.216;5.616;2022-12-24T03:16:06;100541.91;;;7.39;95.16
71805;BME280;59654;52.216;5.616;2022-12-24T03:16:46;100536.72;;;7.36;95.24
71805;BME280;59654;52.216;5.616;2022-12-24T03:17:18;100543.78;;;7.37;94.67
71805;BME280;59654;52.216;5.616;2022-12-24T03:17:53;100545.59;;;7.35;95.59
71805;BME280;59654;52.216;5.616;2022-12-24T03:18:29;100542.03;;;7.36;94.47
71805;BME280;59654;52.216;5.616;2022-12-24T03:19:00;100537.69;;;7.34;95.46
71805;BME280;59654;52.216;5.616;2022-12-24T03:19:32;100539.47;;;7.33;95.37
71805;BME280;59654;52.216;5.616;2022-12-24T03:20:07;100543.94;;;7.31;95.14
71805;BME280;59654;52.216;5.616;2022-12-24T03:20:46;100536.94;;;7.29;95.56
71805;BME280;59654;52.216;5.616;2022-12-24T03:21:57;100545.84;;;7.26;95.34
71805;BME280;59654;52.216;5.616;2022-12-24T03:22:32;100536.97;;;7.27;96.00
71805;BME280;59654;52.216;5.616;2022-12-24T03:23:04;100539.63;;;7.27;95.31
71805;BME280;59654;52.216;5.616;2022-12-24T03:23:36;100534.28;;;7.29;95.62
71805;BME280;59654;52.216;5.616;2022-12-24T03:24:08;100535.19;;;7.28;95.28
71805;BME280;59654;52.216;5.616;2022-12-24T03:24:40;100539.59;;;7.29;95.50
71805;BME280;59654;52.216;5.616;2022-12-24T03:25:10;100537.03;;;7.26;95.46
71805;BME280;59654;52.216;5.616;2022-12-24T03:25:43;100536.97;;;7.27;95.41
71805;BME280;59654;52.216;5.616;2022-12-24T03:26:17;100545.84;;;7.26;95.32
71805;BME280;59654;52.216;5.616;2022-12-24T03:26:51;100544.09;;;7.25;95.04
71805;BME280;59654;52.216;5.616;2022-12-24T03:27:25;100544.09;;;7.25;95.82
71805;BME280;59654;52.216;5.616;2022-12-24T03:28:00;100540.53;;;7.26;96.14
71805;BME280;59654;52.216;5.616;2022-12-24T03:28:33;100538.81;;;7.25;95.80
71805;BME280;59654;52.216;5.616;2022-12-24T03:29:06;100539.69;;;7.26;94.61